< < Back
Terminal Aerodrome Forecast


Current Version              Previous Versions:   1  2  3  4  5  6  7  8  9  

Terminal Aerodrome Forecast

483
FTUS44 KMOB 081734
TAFPNS
TAF
KPNS 081734Z 0818/0918 25016G20KT P6SM SKC
     FM082000 30023G33KT P6SM SCT070
     FM090300 31018G24KT P6SM SKC=

Latest METAR

383
SAUS70 KWBC 092000 RRK
MTRPNS
METAR KPNS 091953Z 28012G21KT 10SM CLR 12/M09 A2998 RMK AO2 PK WND
30027/1859 SLP156 T01171094


USA.gov is the U.S. government's official web portal to all federal, state and local government web resources and services.